ジッダ の空港の天気 - METARとTAF

キング・アブドゥルアズィーズ国際空港(ジッダ) ( OEJN / JED ) - サウジアラビア ジッダ
飛行場実況気象(Metar)
観測時間05/26 01:00 AST (05/25 22:00 UTC)
風向・風速北 4m/s
視程10km以上
天気現象
なし
気温27℃
湿度70%
気圧1008hPa
METAROEJN 252200Z 36008KT CAVOK 27/21 Q1008 NOSIG
過去の天気等 Google飛行場航空写真 Wunderground天気予報

過去48時間のMETAR

飛行場予報(TAF)
発表時間: 5/25 14:00 AST (5/25 11:00 UTC)
予報対象時間: 25日15時 AST ~ 26日21時 AST
風向・風速北北西 9m/s
視程7000m
なし
25日21時 AST ~ 25日23時 AST に徐々に
風向・風速北北東 3m/s
TAF OEJN 251100Z 2512/2618 33018KT 7000 NSC
BECMG 2518/2520 03006KT